Time;durP1;ratioP1;P1;durP2;ratioP2;P2;SDS_P1;SDS_P2;PMS_P1;PMS_P2;Temp;Humidity;BMP_temperature;BMP_pressure;BME280_temperature;BME280_humidity;BME280_pressure;Samples;Min_cycle;Max_cycle;Signal;HPM_P1;HPM_P2
2024/03/15 00:02:19;;;;;;;7.93;4.40;;;11.20;99.90;;;;;;5030037;28;20056;-49
2024/03/15 00:04:45;;;;;;;9.13;5.53;;;11.10;99.90;;;;;;5032176;28;20021;-49
2024/03/15 00:07:10;;;;;;;14.02;5.40;;;11.10;99.90;;;;;;5032333;28;20064;-53
2024/03/15 00:09:36;;;;;;;11.77;7.22;;;11.10;99.90;;;;;;5030328;28;20123;-51
2024/03/15 00:12:02;;;;;;;7.70;5.32;;;11.10;99.90;;;;;;5031769;28;20547;-54
2024/03/15 00:14:27;;;;;;;8.63;5.45;;;11.00;99.90;;;;;;5031927;28;20035;-55
2024/03/15 00:16:53;;;;;;;9.27;5.93;;;11.00;99.90;;;;;;5031758;28;20040;-48
2024/03/15 00:19:22;;;;;;;9.93;5.75;;;11.00;99.90;;;;;;5031918;28;20112;-52
2024/03/15 00:21:48;;;;;;;7.97;5.93;;;11.10;99.90;;;;;;5032070;28;20068;-53
2024/03/15 00:24:14;;;;;;;8.93;6.13;;;11.00;99.90;;;;;;5031823;28;20068;-52
2024/03/15 00:26:41;;;;;;;10.93;6.45;;;11.10;99.90;;;;;;5032057;28;20113;-50
2024/03/15 00:29:06;;;;;;;14.35;8.32;;;11.10;99.90;;;;;;5031739;28;20685;-49
2024/03/15 00:31:32;;;;;;;14.38;6.68;;;11.10;99.90;;;;;;5030194;28;20487;-47
2024/03/15 00:33:57;;;;;;;10.70;5.93;;;11.10;99.90;;;;;;5030339;28;20053;-49
2024/03/15 00:36:24;;;;;;;6.80;5.40;;;11.10;99.90;;;;;;5031526;28;20025;-53
2024/03/15 00:38:53;;;;;;;8.48;7.32;;;11.10;99.90;;;;;;5032165;28;20029;-53
2024/03/15 00:41:19;;;;;;;11.48;7.18;;;11.10;99.90;;;;;;5030334;28;20053;-51
2024/03/15 00:43:45;;;;;;;8.18;6.03;;;11.10;99.90;;;;;;5031606;28;20384;-50
2024/03/15 00:46:11;;;;;;;9.15;6.07;;;11.10;99.90;;;;;;5029887;28;20099;-54
2024/03/15 00:48:37;;;;;;;9.52;7.45;;;11.20;99.90;;;;;;5031640;28;20029;-52
2024/03/15 00:51:04;;;;;;;8.25;6.72;;;11.20;99.90;;;;;;5030613;28;20033;-53
2024/03/15 00:53:30;;;;;;;9.65;7.68;;;11.30;99.90;;;;;;5031343;28;20379;-49
2024/03/15 00:55:56;;;;;;;12.27;7.47;;;11.30;99.90;;;;;;5031174;28;20017;-55
2024/03/15 00:58:21;;;;;;;11.88;7.43;;;11.30;99.90;;;;;;5031625;28;20100;-55
2024/03/15 01:00:47;;;;;;;8.38;7.55;;;11.30;99.90;;;;;;5030066;28;20417;-51
2024/03/15 01:03:14;;;;;;;13.20;7.95;;;11.30;99.90;;;;;;5028761;28;20030;-51
2024/03/15 01:05:40;;;;;;;9.38;7.00;;;11.20;99.90;;;;;;5030595;28;20668;-50
2024/03/15 01:08:07;;;;;;;12.63;7.57;;;11.30;99.90;;;;;;5031033;28;20485;-52
2024/03/15 01:10:33;;;;;;;10.43;7.53;;;11.30;99.90;;;;;;5030343;28;20029;-48
2024/03/15 01:12:59;;;;;;;8.35;7.32;;;11.40;99.90;;;;;;5011623;28;20036;-52
2024/03/15 01:15:24;;;;;;;8.77;7.25;;;11.40;99.90;;;;;;5011641;28;20050;-50
2024/03/15 01:17:53;;;;;;;8.20;6.75;;;11.40;99.90;;;;;;5011553;28;20101;-53
2024/03/15 01:20:19;;;;;;;9.75;7.28;;;11.30;99.90;;;;;;5011361;28;20497;-51
2024/03/15 01:22:47;;;;;;;9.43;6.88;;;11.40;99.90;;;;;;5011329;28;20084;-52
2024/03/15 01:25:16;;;;;;;8.27;6.97;;;11.40;99.90;;;;;;5043991;23;20024;-59
2024/03/15 01:27:42;;;;;;;8.73;6.97;;;11.40;99.90;;;;;;5030834;28;20038;-58
2024/03/15 01:30:10;;;;;;;9.27;7.32;;;11.40;99.90;;;;;;5042596;28;20029;-58
2024/03/15 01:32:36;;;;;;;10.57;7.75;;;11.40;99.90;;;;;;5013944;28;20022;-57
2024/03/15 01:35:02;;;;;;;8.98;6.80;;;11.40;99.90;;;;;;5029231;28;20022;-59
2024/03/15 01:37:28;;;;;;;11.93;7.13;;;11.50;99.90;;;;;;5012480;28;20446;-58
2024/03/15 01:39:54;;;;;;;11.77;7.70;;;11.50;99.90;;;;;;5013434;28;20145;-52
2024/03/15 01:42:19;;;;;;;11.20;7.57;;;11.50;99.90;;;;;;5012336;28;20032;-61
2024/03/15 01:44:52;;;;;;;10.48;8.15;;;11.50;99.90;;;;;;5013630;28;20076;-58
2024/03/15 01:47:27;;;;;;;11.32;6.95;;;11.40;99.90;;;;;;5013570;28;20165;-58
2024/03/15 01:49:57;;;;;;;10.23;8.10;;;11.40;99.90;;;;;;5013260;28;20065;-59
2024/03/15 01:52:24;;;;;;;9.60;7.10;;;11.30;99.90;;;;;;5013382;28;20434;-58
2024/03/15 01:54:51;;;;;;;10.57;7.50;;;11.30;99.90;;;;;;5028541;28;20038;-56
2024/03/15 01:57:18;;;;;;;9.48;7.80;;;11.30;99.90;;;;;;5028558;28;20026;-58
2024/03/15 01:59:44;;;;;;;10.55;7.95;;;11.20;99.90;;;;;;5028188;28;20029;-58
2024/03/15 02:02:10;;;;;;;9.60;7.80;;;11.30;99.90;;;;;;5028371;28;20586;-57
2024/03/15 02:04:36;;;;;;;10.00;7.28;;;11.20;99.90;;;;;;5013193;28;20030;-60
2024/03/15 02:07:02;;;;;;;10.43;7.15;;;11.10;99.90;;;;;;5012967;28;20022;-59
2024/03/15 02:09:28;;;;;;;8.52;7.25;;;11.10;99.90;;;;;;5013008;28;20038;-56
2024/03/15 02:11:58;;;;;;;13.32;7.75;;;11.10;99.90;;;;;;5028275;28;20506;-56
2024/03/15 02:14:25;;;;;;;7.75;6.57;;;11.10;99.90;;;;;;5012562;28;20044;-59
2024/03/15 02:16:52;;;;;;;10.85;7.47;;;11.00;99.90;;;;;;5012953;28;20505;-58
2024/03/15 02:19:18;;;;;;;12.45;7.63;;;11.10;99.90;;;;;;5012638;28;20508;-59
2024/03/15 02:21:49;;;;;;;10.27;7.45;;;11.00;99.90;;;;;;5012996;28;20026;-56
2024/03/15 02:24:15;;;;;;;10.57;7.78;;;11.00;99.90;;;;;;5012782;28;20029;-60
2024/03/15 02:26:42;;;;;;;9.40;6.43;;;11.00;99.90;;;;;;5012598;28;20036;-58
2024/03/15 02:29:08;;;;;;;12.48;7.07;;;10.90;99.90;;;;;;5012770;28;20021;-59
2024/03/15 02:31:33;;;;;;;8.80;7.22;;;11.00;99.90;;;;;;5012501;28;20061;-57
2024/03/15 02:34:00;;;;;;;9.10;6.50;;;10.90;99.90;;;;;;5012643;28;20423;-61
2024/03/15 02:36:25;;;;;;;6.95;6.25;;;10.90;99.90;;;;;;5012577;28;20105;-61
2024/03/15 02:38:51;;;;;;;7.95;6.60;;;10.90;99.90;;;;;;5012374;28;20101;-58
2024/03/15 02:41:17;;;;;;;10.57;6.63;;;10.90;99.90;;;;;;5012722;28;20040;-58
2024/03/15 02:43:44;;;;;;;9.93;7.32;;;10.90;99.90;;;;;;5011087;28;20026;-58
2024/03/15 02:46:10;;;;;;;8.85;7.30;;;10.90;99.90;;;;;;5012262;28;20099;-61
2024/03/15 02:48:38;;;;;;;7.80;6.95;;;10.90;99.90;;;;;;5012194;28;20540;-59
2024/03/15 02:51:05;;;;;;;8.50;7.25;;;10.80;99.90;;;;;;5012265;28;20044;-61
2024/03/15 02:53:30;;;;;;;7.88;6.25;;;10.80;99.90;;;;;;5011132;28;20076;-61
2024/03/15 02:55:56;;;;;;;9.55;7.22;;;10.80;99.90;;;;;;5012276;28;20038;-60
2024/03/15 02:58:22;;;;;;;11.13;6.50;;;10.80;99.90;;;;;;5012346;28;20018;-56
2024/03/15 03:00:47;;;;;;;16.25;7.72;;;10.70;99.90;;;;;;5010735;28;20057;-58
2024/03/15 03:03:13;;;;;;;9.55;7.20;;;10.70;99.90;;;;;;5012237;28;20038;-59
2024/03/15 03:05:41;;;;;;;8.15;7.35;;;10.70;99.90;;;;;;5012093;28;20384;-57
2024/03/15 03:08:07;;;;;;;11.90;7.80;;;10.70;99.90;;;;;;5011992;28;20042;-54
2024/03/15 03:10:32;;;;;;;8.88;7.72;;;11.00;99.90;;;;;;5011899;28;20033;-60
2024/03/15 03:13:00;;;;;;;11.10;7.70;;;10.70;99.90;;;;;;5012032;28;20022;-54
2024/03/15 03:15:25;;;;;;;13.60;8.02;;;10.60;99.90;;;;;;5011885;28;20022;-59
2024/03/15 03:17:51;;;;;;;14.00;9.73;;;10.60;99.90;;;;;;5011878;28;20041;-61
2024/03/15 03:20:20;;;;;;;9.73;8.00;;;10.70;99.90;;;;;;5011797;28;20110;-56
2024/03/15 03:22:49;;;;;;;8.68;6.40;;;10.70;99.90;;;;;;5011633;28;20068;-59
2024/03/15 03:25:15;;;;;;;10.07;7.68;;;10.60;99.90;;;;;;5011364;28;20036;-58
2024/03/15 03:27:41;;;;;;;8.55;7.20;;;10.60;99.90;;;;;;5011439;28;20116;-57
2024/03/15 03:30:07;;;;;;;7.63;6.18;;;10.60;99.90;;;;;;5010071;28;20029;-57
2024/03/15 03:32:35;;;;;;;8.00;7.10;;;10.60;99.90;;;;;;5011756;28;20022;-58
2024/03/15 03:35:03;;;;;;;12.95;7.13;;;10.60;99.90;;;;;;5011696;28;20029;-59
2024/03/15 03:37:28;;;;;;;12.18;7.28;;;10.60;99.90;;;;;;5011874;28;20049;-58
2024/03/15 03:39:53;;;;;;;9.25;7.85;;;10.60;99.90;;;;;;5011746;28;20167;-60
2024/03/15 03:42:20;;;;;;;11.40;8.27;;;10.70;99.90;;;;;;5010360;28;20030;-56
2024/03/15 03:44:45;;;;;;;9.00;7.55;;;10.70;99.90;;;;;;5011705;28;20048;-58
2024/03/15 03:47:11;;;;;;;9.35;6.95;;;10.60;99.90;;;;;;5011521;28;20022;-57
2024/03/15 03:49:38;;;;;;;13.18;6.93;;;10.70;99.90;;;;;;5011360;28;20489;-55
2024/03/15 03:52:03;;;;;;;8.50;7.32;;;10.70;99.90;;;;;;5011551;28;20026;-59
2024/03/15 03:54:30;;;;;;;11.25;8.48;;;10.70;99.90;;;;;;5011306;28;20132;-59
2024/03/15 03:56:57;;;;;;;10.35;8.13;;;10.70;99.90;;;;;;5011386;28;20552;-57
2024/03/15 03:59:22;;;;;;;14.18;8.70;;;10.70;99.90;;;;;;5010089;28;20030;-59
2024/03/15 04:01:48;;;;;;;12.15;8.15;;;10.70;99.90;;;;;;5011744;28;20030;-58
2024/03/15 04:04:14;;;;;;;12.45;8.55;;;10.70;99.90;;;;;;5010054;28;20379;-58
2024/03/15 04:06:46;;;;;;;14.23;8.68;;;10.70;99.90;;;;;;5010194;28;20406;-59
2024/03/15 04:09:11;;;;;;;9.23;8.20;;;10.70;99.90;;;;;;5011278;28;20084;-58
2024/03/15 04:11:38;;;;;;;10.70;7.45;;;10.70;99.90;;;;;;5011508;28;20505;-57
2024/03/15 04:14:04;;;;;;;9.85;7.65;;;10.60;99.90;;;;;;5011503;28;20025;-58
2024/03/15 04:16:30;;;;;;;14.27;8.05;;;10.60;99.90;;;;;;5011292;28;20030;-59
2024/03/15 04:18:57;;;;;;;12.10;8.07;;;10.60;99.90;;;;;;5011180;28;20018;-55
2024/03/15 04:21:23;;;;;;;12.55;7.45;;;10.50;99.90;;;;;;5010508;28;20119;-58
2024/03/15 04:23:49;;;;;;;10.07;7.20;;;10.50;99.90;;;;;;5011439;28;20058;-56
2024/03/15 04:26:15;;;;;;;11.45;7.55;;;10.50;99.90;;;;;;5011250;28;20040;-58
2024/03/15 04:28:41;;;;;;;8.68;7.72;;;10.50;99.90;;;;;;5011823;28;20018;-56
2024/03/15 04:31:07;;;;;;;10.07;8.18;;;10.50;99.90;;;;;;5010746;28;20115;-55
2024/03/15 04:33:35;;;;;;;12.30;7.80;;;10.50;99.90;;;;;;5011298;28;20446;-56
2024/03/15 04:36:04;;;;;;;9.15;7.72;;;10.50;99.90;;;;;;5011412;28;20048;-57
2024/03/15 04:38:30;;;;;;;7.60;6.80;;;10.40;99.90;;;;;;5014125;28;20419;-57
2024/03/15 04:40:55;;;;;;;12.73;8.13;;;10.30;99.90;;;;;;5030232;28;20348;-56
2024/03/15 04:43:21;;;;;;;11.10;7.93;;;10.40;99.90;;;;;;5013928;28;20026;-55
2024/03/15 04:45:47;;;;;;;9.55;7.70;;;10.30;99.90;;;;;;5014611;28;20072;-56
2024/03/15 04:48:12;;;;;;;12.50;8.52;;;10.30;99.90;;;;;;5014973;28;20030;-60
2024/03/15 04:50:38;;;;;;;12.40;8.43;;;10.40;99.90;;;;;;5014602;28;20092;-57
2024/03/15 04:53:04;;;;;;;9.85;8.15;;;10.30;99.90;;;;;;5015272;28;20096;-55
2024/03/15 04:55:30;;;;;;;9.80;7.43;;;10.30;99.90;;;;;;5014732;28;20080;-57
2024/03/15 04:57:55;;;;;;;11.30;7.72;;;10.20;99.90;;;;;;5014450;28;20030;-55
2024/03/15 05:00:21;;;;;;;11.40;8.15;;;10.20;99.90;;;;;;5029656;28;20064;-60
2024/03/15 05:02:48;;;;;;;13.75;8.90;;;10.10;99.90;;;;;;5014041;28;20091;-58
2024/03/15 05:05:14;;;;;;;9.27;7.38;;;10.20;99.90;;;;;;5014490;28;20022;-59
2024/03/15 05:07:40;;;;;;;16.02;8.32;;;10.20;99.90;;;;;;5029416;28;20025;-58
2024/03/15 05:10:06;;;;;;;13.07;8.52;;;10.10;99.90;;;;;;5014122;28;20037;-55
2024/03/15 05:12:33;;;;;;;9.55;7.50;;;10.20;99.90;;;;;;5012999;28;20018;-60
2024/03/15 05:14:58;;;;;;;10.25;8.18;;;10.20;99.90;;;;;;5014212;28;20042;-58
2024/03/15 05:17:24;;;;;;;9.98;8.13;;;10.20;99.90;;;;;;5012750;28;20017;-55
2024/03/15 05:19:50;;;;;;;9.60;7.95;;;10.20;99.90;;;;;;5014018;28;20112;-60
2024/03/15 05:22:16;;;;;;;19.67;9.30;;;10.20;99.90;;;;;;5029312;28;20064;-58
2024/03/15 05:24:41;;;;;;;11.77;7.72;;;10.20;99.90;;;;;;5029087;28;20053;-58
2024/03/15 05:27:09;;;;;;;13.07;8.38;;;10.20;99.90;;;;;;5013799;28;20040;-57
2024/03/15 05:29:38;;;;;;;9.15;8.10;;;10.20;99.90;;;;;;5013355;28;20398;-57
2024/03/15 05:32:04;;;;;;;10.93;8.10;;;10.20;99.90;;;;;;5013857;28;20018;-59
2024/03/15 05:34:31;;;;;;;10.13;7.65;;;10.30;99.90;;;;;;5013545;28;20553;-56
2024/03/15 05:36:57;;;;;;;13.95;7.20;;;10.20;99.90;;;;;;5013946;28;20429;-55
2024/03/15 05:39:22;;;;;;;12.98;8.30;;;10.30;99.90;;;;;;5028830;28;20018;-57
2024/03/15 05:41:48;;;;;;;11.45;8.02;;;10.30;99.90;;;;;;5013737;28;20105;-53
2024/03/15 05:44:13;;;;;;;14.10;8.07;;;10.30;99.90;;;;;;5013849;28;20022;-57
2024/03/15 05:46:39;;;;;;;13.32;8.23;;;10.30;99.90;;;;;;5013711;28;20497;-59
2024/03/15 05:49:04;;;;;;;13.27;7.93;;;10.30;99.90;;;;;;5012996;28;20022;-57
2024/03/15 05:51:33;;;;;;;13.00;9.00;;;10.30;99.90;;;;;;5028849;28;20037;-57
2024/03/15 05:53:59;;;;;;;10.77;8.15;;;10.30;99.90;;;;;;5013560;28;20034;-59
2024/03/15 05:56:24;;;;;;;15.20;8.20;;;10.30;99.90;;;;;;5013180;28;20026;-54
2024/03/15 05:58:51;;;;;;;9.20;8.18;;;10.30;99.90;;;;;;5013359;28;20026;-58
2024/03/15 06:01:17;;;;;;;9.88;7.57;;;10.30;99.90;;;;;;5028631;28;20437;-55
2024/03/15 06:03:42;;;;;;;13.45;8.32;;;10.30;99.90;;;;;;5013122;28;20079;-57
2024/03/15 06:06:08;;;;;;;11.30;8.07;;;10.30;99.90;;;;;;5011849;28;20029;-56
2024/03/15 06:08:35;;;;;;;10.18;7.25;;;10.30;99.90;;;;;;5013273;28;20017;-57
2024/03/15 06:11:00;;;;;;;9.73;7.53;;;10.30;99.90;;;;;;5011363;28;20026;-58
2024/03/15 06:13:26;;;;;;;9.73;7.28;;;10.40;99.90;;;;;;5011777;28;20132;-58
2024/03/15 06:15:51;;;;;;;10.88;7.15;;;10.50;99.90;;;;;;5011575;28;20561;-59
2024/03/15 06:18:17;;;;;;;12.35;6.93;;;10.60;99.90;;;;;;5013122;28;20401;-52
2024/03/15 06:20:42;;;;;;;6.80;5.90;;;10.80;99.90;;;;;;5012760;28;20030;-56
2024/03/15 06:23:08;;;;;;;9.38;6.20;;;11.00;99.90;;;;;;5012845;28;20026;-57
2024/03/15 06:25:34;;;;;;;9.63;6.40;;;11.30;99.90;;;;;;5012817;28;20030;-59
2024/03/15 06:28:06;;;;;;;6.15;5.40;;;11.60;99.90;;;;;;5027924;28;20037;-55
2024/03/15 06:30:34;;;;;;;5.90;5.25;;;11.90;99.90;;;;;;5012451;28;20029;-59
2024/03/15 06:33:02;;;;;;;10.07;6.80;;;12.30;99.90;;;;;;5011389;28;20034;-59
2024/03/15 06:35:27;;;;;;;6.68;4.80;;;12.60;99.90;;;;;;5011379;28;20084;-58
2024/03/15 06:37:57;;;;;;;5.68;4.72;;;12.90;99.90;;;;;;5027873;28;20029;-59
2024/03/15 06:41:07;;;;;;;13.32;4.70;;;13.00;99.90;;;;;;5012484;28;20022;-57
2024/03/15 06:43:25;;;;;;;6.55;4.95;;;13.10;99.90;;;;;;5006552;28;20089;-58
2024/03/15 06:48:32;;;;;;;6.65;4.55;;;12.90;99.90;;;;;;5012445;28;20033;-59
2024/03/15 06:53:43;;;;;;;4.30;3.72;;;13.80;99.90;;;;;;5012604;28;20032;-58
2024/03/15 06:56:11;;;;;;;7.35;4.38;;;14.40;99.90;;;;;;5027351;28;20030;-57
2024/03/15 06:58:36;;;;;;;4.93;3.58;;;14.70;99.90;;;;;;5012140;28;20045;-58
2024/03/15 07:01:02;;;;;;;8.27;4.35;;;14.60;99.90;;;;;;5012073;28;20088;-59
2024/03/15 07:03:28;;;;;;;5.60;4.22;;;14.70;99.90;;;;;;5012267;28;20028;-58
2024/03/15 07:05:56;;;;;;;4.63;3.97;;;14.70;99.90;;;;;;5011970;28;20021;-58
2024/03/15 07:08:22;;;;;;;4.38;3.97;;;14.30;99.90;;;;;;5012195;28;20030;-59
2024/03/15 07:10:48;;;;;;;4.82;4.05;;;14.10;99.90;;;;;;5011920;28;20105;-58
2024/03/15 07:13:13;;;;;;;10.00;4.32;;;13.70;99.90;;;;;;5011952;28;20105;-59
2024/03/15 07:15:39;;;;;;;4.57;3.70;;;13.60;99.90;;;;;;5026812;28;20021;-51
2024/03/15 07:18:04;;;;;;;6.05;4.43;;;13.50;99.90;;;;;;5011991;28;20037;-59
2024/03/15 07:20:36;;;;;;;7.20;3.40;;;13.20;99.90;;;;;;5011898;28;20037;-58
2024/03/15 07:23:05;;;;;;;7.55;3.60;;;13.00;99.90;;;;;;5027055;28;20033;-57
2024/03/15 07:25:31;;;;;;;7.85;3.70;;;13.00;99.90;;;;;;5026286;23;20409;-50
2024/03/15 07:27:57;;;;;;;3.50;3.20;;;12.90;99.90;;;;;;5006778;28;20026;-50
2024/03/15 07:30:23;;;;;;;4.47;3.78;;;12.80;99.90;;;;;;5026966;28;20022;-50
2024/03/15 07:32:51;;;;;;;9.10;3.97;;;12.70;99.90;;;;;;5012010;28;20079;-54
2024/03/15 07:35:17;;;;;;;4.82;4.18;;;12.70;99.90;;;;;;5011644;28;20509;-54
2024/03/15 07:37:45;;;;;;;3.35;3.05;;;12.70;99.90;;;;;;5011595;28;20026;-50
2024/03/15 07:40:10;;;;;;;5.45;3.47;;;12.70;99.90;;;;;;5011718;28;20026;-53
2024/03/15 07:42:36;;;;;;;5.78;3.70;;;12.70;99.90;;;;;;5011612;28;20508;-50
2024/03/15 07:45:04;;;;;;;5.20;3.75;;;12.70;99.90;;;;;;5011937;28;20022;-55
2024/03/15 07:47:29;;;;;;;16.15;4.20;;;12.70;99.90;;;;;;5012090;28;20101;-55
2024/03/15 07:49:55;;;;;;;8.95;3.70;;;12.70;99.90;;;;;;5011086;28;20132;-58
2024/03/15 07:52:20;;;;;;;5.22;3.88;;;12.70;99.90;;;;;;5011666;28;20496;-52
2024/03/15 07:54:46;;;;;;;5.82;4.00;;;12.70;99.90;;;;;;5012001;28;20037;-54
2024/03/15 07:57:12;;;;;;;11.90;4.97;;;12.70;99.90;;;;;;5011482;28;20405;-52
2024/03/15 07:59:39;;;;;;;5.25;4.40;;;12.80;99.90;;;;;;5026646;28;20025;-53
2024/03/15 08:02:05;;;;;;;4.13;3.35;;;12.90;99.90;;;;;;5012114;28;20026;-56
2024/03/15 08:04:30;;;;;;;6.93;4.05;;;13.00;99.90;;;;;;5011534;28;20038;-53
2024/03/15 08:06:56;;;;;;;8.45;4.00;;;13.10;99.90;;;;;;5011525;28;20025;-52
2024/03/15 08:09:23;;;;;;;9.45;4.25;;;13.20;99.90;;;;;;5011191;28;20510;-54
2024/03/15 08:11:49;;;;;;;4.90;4.18;;;13.20;99.90;;;;;;5012040;28;20378;-51
2024/03/15 08:14:14;;;;;;;5.88;3.80;;;13.30;99.90;;;;;;5015236;28;20022;-53
2024/03/15 08:16:41;;;;;;;6.05;4.32;;;13.20;99.90;;;;;;5015046;28;20092;-52
2024/03/15 08:19:08;;;;;;;7.90;4.07;;;13.10;99.90;;;;;;5015232;28;20398;-55
2024/03/15 08:21:36;;;;;;;5.47;4.32;;;13.00;99.90;;;;;;5015005;28;20109;-54
2024/03/15 08:24:04;;;;;;;5.30;4.32;;;12.90;99.90;;;;;;5015170;28;20515;-55
2024/03/15 08:26:33;;;;;;;5.05;4.43;;;12.90;99.90;;;;;;5014119;28;20038;-53
2024/03/15 08:29:00;;;;;;;8.65;4.82;;;12.90;99.90;;;;;;5013593;28;20516;-55
2024/03/15 08:31:26;;;;;;;7.65;4.47;;;12.90;99.90;;;;;;5013112;28;20048;-54
2024/03/15 08:33:51;;;;;;;5.90;4.72;;;13.00;99.90;;;;;;5012248;28;20482;-53
2024/03/15 08:36:17;;;;;;;6.53;4.63;;;13.10;99.90;;;;;;5013483;28;20456;-53
2024/03/15 08:38:42;;;;;;;5.63;3.95;;;13.10;99.90;;;;;;5013650;28;20026;-53
2024/03/15 08:41:08;;;;;;;8.02;4.28;;;13.20;99.90;;;;;;5013435;28;20490;-56
2024/03/15 08:43:34;;;;;;;4.90;3.90;;;13.20;99.90;;;;;;5013544;28;20037;-53
2024/03/15 08:46:00;;;;;;;7.22;3.80;;;13.20;99.90;;;;;;5013332;28;20022;-53
2024/03/15 08:48:30;;;;;;;8.13;3.58;;;13.30;99.90;;;;;;5013466;28;20591;-54
2024/03/15 08:50:56;;;;;;;6.13;4.15;;;13.30;99.90;;;;;;5013300;28;20137;-53
2024/03/15 08:53:24;;;;;;;5.25;3.65;;;13.40;99.90;;;;;;5011725;28;20072;-52
2024/03/15 08:55:50;;;;;;;4.65;3.78;;;13.40;99.90;;;;;;5013355;28;20046;-55
2024/03/15 08:58:16;;;;;;;6.95;3.50;;;13.40;99.90;;;;;;5013839;28;20054;-56
2024/03/15 09:00:42;;;;;;;7.13;3.72;;;13.50;99.90;;;;;;5013628;28;20397;-54
2024/03/15 09:03:09;;;;;;;7.25;3.45;;;13.50;99.90;;;;;;5013277;28;20394;-52
2024/03/15 09:05:37;;;;;;;6.78;3.75;;;13.50;99.90;;;;;;5013117;28;20390;-51
2024/03/15 09:08:09;;;;;;;7.22;3.65;;;13.50;99.90;;;;;;5013216;28;20034;-51
2024/03/15 09:10:35;;;;;;;4.28;3.00;;;13.50;99.90;;;;;;5013148;28;20497;-53
2024/03/15 09:13:00;;;;;;;5.60;4.55;;;13.60;99.90;;;;;;5012210;28;20176;-54
2024/03/15 09:15:26;;;;;;;6.43;3.40;;;13.60;99.90;;;;;;5013533;28;20021;-52
2024/03/15 09:17:52;;;;;;;7.70;3.88;;;13.70;99.90;;;;;;5013727;28;20099;-57
2024/03/15 09:20:20;;;;;;;8.18;3.75;;;13.60;99.90;;;;;;5028364;28;20025;-56
2024/03/15 09:22:49;;;;;;;11.30;3.42;;;13.60;99.90;;;;;;5013814;28;20018;-50
2024/03/15 09:25:19;;;;;;;5.82;3.30;;;13.50;99.90;;;;;;5011917;28;20029;-51
2024/03/15 09:27:48;;;;;;;8.80;3.40;;;13.50;99.90;;;;;;5005674;28;203123;-50
2024/03/15 09:30:16;;;;;;;4.10;3.22;;;13.50;99.90;;;;;;5013747;28;20497;-48
2024/03/15 09:32:46;;;;;;;6.45;2.92;;;13.40;99.90;;;;;;5014026;28;20029;-56
2024/03/15 09:35:14;;;;;;;8.18;3.25;;;13.40;99.90;;;;;;5013824;28;20371;-53
2024/03/15 09:37:53;;;;;;;6.00;3.05;;;13.40;99.90;;;;;;5013669;28;20366;-56
2024/03/15 09:40:19;;;;;;;2.80;2.33;;;13.40;99.90;;;;;;5013588;28;20022;-50
2024/03/15 09:42:54;;;;;;;3.65;2.47;;;13.40;99.90;;;;;;5013699;28;20025;-57
2024/03/15 09:45:21;;;;;;;3.17;1.83;;;13.50;99.90;;;;;;5013667;28;20029;-52
2024/03/15 09:47:51;;;;;;;3.95;2.67;;;13.50;99.90;;;;;;5013456;28;20036;-57
2024/03/15 09:50:21;;;;;;;4.13;2.10;;;13.50;99.90;;;;;;5028543;28;20084;-53
2024/03/15 09:52:49;;;;;;;2.72;1.92;;;13.40;99.90;;;;;;5013478;28;20471;-56
2024/03/15 09:55:19;;;;;;;3.03;2.15;;;13.40;99.90;;;;;;5041493;28;20038;-56
2024/03/15 09:57:46;;;;;;;3.80;2.10;;;13.30;99.90;;;;;;5013411;28;20022;-54
2024/03/15 10:00:22;;;;;;;3.03;2.13;;;13.30;99.90;;;;;;5019242;28;20026;-55
2024/03/15 10:02:49;;;;;;;2.60;2.17;;;13.30;99.90;;;;;;5031701;28;20025;-58
2024/03/15 10:05:16;;;;;;;2.67;2.10;;;13.30;99.90;;;;;;5031258;28;20043;-55
2024/03/15 10:07:42;;;;;;;3.55;2.65;;;13.40;99.90;;;;;;5032283;28;20025;-58
2024/03/15 10:10:12;;;;;;;2.63;2.13;;;13.40;99.90;;;;;;5031228;28;20030;-59
2024/03/15 10:12:44;;;;;;;4.45;2.20;;;13.40;99.90;;;;;;5032941;28;20013;-58
2024/03/15 10:15:12;;;;;;;2.08;1.98;;;13.40;99.90;;;;;;5013034;28;20079;-54
2024/03/15 10:17:39;;;;;;;4.85;2.53;;;13.30;99.90;;;;;;5013106;28;20026;-57
2024/03/15 10:20:14;;;;;;;3.45;2.80;;;13.30;99.90;;;;;;5013291;28;20033;-53
2024/03/15 10:22:40;;;;;;;2.17;2.07;;;13.30;99.90;;;;;;5013423;28;20504;-54
2024/03/15 10:25:13;;;;;;;4.57;2.28;;;13.30;99.90;;;;;;5029819;28;20084;-55
2024/03/15 10:27:39;;;;;;;3.80;2.33;;;13.40;99.90;;;;;;5032386;28;20068;-54
2024/03/15 10:30:14;;;;;;;6.90;2.38;;;13.40;99.90;;;;;;5032222;28;20029;-58
2024/03/15 10:32:41;;;;;;;;;;;13.50;99.90;;;;;;5032802;28;20033;-54
2024/03/15 10:35:15;;;;;;;6.38;2.58;;;13.50;99.90;;;;;;5031608;28;19920;-60
2024/03/15 10:37:45;;;;;;;2.47;2.28;;;13.50;99.90;;;;;;5024883;28;20026;-53
2024/03/15 10:40:14;;;;;;;2.50;2.30;;;13.60;99.90;;;;;;5015220;28;20100;-54
2024/03/15 10:42:46;;;;;;;2.60;2.13;;;13.60;99.90;;;;;;5031913;28;20391;-54
2024/03/15 10:45:14;;;;;;;3.15;2.25;;;13.60;99.90;;;;;;5030432;28;20056;-54
2024/03/15 10:47:43;;;;;;;2.42;2.13;;;13.50;99.90;;;;;;5032388;28;20034;-55
2024/03/15 10:50:11;;;;;;;2.50;2.33;;;13.60;99.90;;;;;;5032054;28;20092;-51
2024/03/15 10:52:41;;;;;;;2.45;2.33;;;13.70;99.90;;;;;;5032007;28;20464;-52
2024/03/15 10:55:25;;;;;;;3.15;2.40;;;13.70;99.90;;;;;;5032161;28;20032;-53
2024/03/15 10:57:54;;;;;;;4.47;3.10;;;13.80;99.90;;;;;;5031626;28;20030;-53
2024/03/15 11:00:24;;;;;;;3.05;2.35;;;13.80;99.90;;;;;;5031266;28;20366;-53
2024/03/15 11:02:54;;;;;;;2.22;2.13;;;13.90;99.90;;;;;;5030501;28;20026;-49
2024/03/15 11:05:26;;;;;;;2.03;1.88;;;14.00;99.90;;;;;;5031764;28;20047;-52
2024/03/15 11:08:12;;;;;;;6.47;2.47;;;14.00;99.90;;;;;;5031692;28;20070;-49
2024/03/15 11:10:38;;;;;;;;;;;13.90;99.90;;;;;;5031981;28;20148;-52
2024/03/15 11:13:05;;;;;;;2.03;1.83;;;13.90;99.90;;;;;;5030306;28;19967;-50
2024/03/15 11:15:35;;;;;;;6.40;2.10;;;13.90;99.90;;;;;;5031350;28;20582;-51
2024/03/15 11:18:09;;;;;;;2.60;2.10;;;13.90;99.90;;;;;;5031715;28;20025;-50
2024/03/15 11:20:55;;;;;;;2.63;1.98;;;13.90;99.90;;;;;;5031535;28;20029;-56
2024/03/15 11:23:22;;;;;;;3.13;2.40;;;13.90;99.90;;;;;;5031498;28;20037;-54
2024/03/15 11:26:01;;;;;;;3.38;2.08;;;13.90;99.90;;;;;;5029953;28;20025;-54
2024/03/15 11:28:31;;;;;;;2.80;2.25;;;13.90;99.90;;;;;;5029941;28;20038;-56
2024/03/15 11:30:57;;;;;;;2.20;2.00;;;13.80;99.90;;;;;;5031641;28;20029;-58
2024/03/15 11:33:25;;;;;;;26.73;19.17;;;13.80;99.90;;;;;;5031345;28;20022;-56
2024/03/15 11:35:51;;;;;;;5.72;4.25;;;13.90;99.90;;;;;;5028616;28;20108;-55
2024/03/15 11:38:18;;;;;;;4.32;3.10;;;13.90;99.90;;;;;;5029304;28;20112;-58
2024/03/15 11:40:44;;;;;;;2.35;2.08;;;13.80;99.90;;;;;;5030424;28;20457;-57
2024/03/15 11:43:11;;;;;;;3.08;1.80;;;13.90;99.90;;;;;;5030201;28;20112;-57
2024/03/15 11:45:38;;;;;;;1.85;1.75;;;13.90;99.90;;;;;;5030792;28;20456;-48
2024/03/15 11:48:24;;;;;;;2.40;2.20;;;14.00;99.90;;;;;;5030336;28;20041;-55
2024/03/15 11:50:52;;;;;;;1.83;1.73;;;14.00;99.90;;;;;;5033367;28;20476;-58
2024/03/15 11:53:20;;;;;;;2.00;1.90;;;14.10;99.90;;;;;;5033808;28;20056;-52
2024/03/15 11:55:47;;;;;;;2.78;2.08;;;14.20;99.90;;;;;;5019091;28;20110;-53
2024/03/15 11:58:16;;;;;;;2.05;1.95;;;14.30;99.90;;;;;;5022863;28;20030;-55
2024/03/15 12:00:52;;;;;;;1.85;1.70;;;14.40;99.90;;;;;;5029493;28;20087;-51
2024/03/15 12:03:31;;;;;;;3.80;2.47;;;14.40;99.90;;;;;;5027746;28;20033;-52
2024/03/15 12:05:58;;;;;;;2.22;1.88;;;14.40;99.90;;;;;;5015589;28;20021;-53
2024/03/15 12:08:24;;;;;;;1.50;1.40;;;14.50;99.90;;;;;;5017534;28;20405;-51
2024/03/15 12:10:54;;;;;;;1.73;1.63;;;14.40;99.90;;;;;;5020185;28;20063;-57
2024/03/15 12:13:24;;;;;;;1.25;1.25;;;14.40;99.90;;;;;;5030979;28;20078;-57
2024/03/15 12:15:51;;;;;;;1.77;1.67;;;14.40;99.90;;;;;;5027543;28;20025;-57
2024/03/15 12:18:18;;;;;;;1.50;1.42;;;14.40;99.90;;;;;;5027991;28;20116;-56
2024/03/15 12:20:45;;;;;;;1.85;1.75;;;14.50;99.90;;;;;;5029135;28;20484;-58
2024/03/15 12:23:12;;;;;;;2.58;2.38;;;14.40;99.90;;;;;;5028554;28;20327;-55
2024/03/15 12:25:38;;;;;;;2.90;2.40;;;14.50;99.90;;;;;;5028753;28;20547;-51
2024/03/15 12:28:08;;;;;;;3.70;2.22;;;14.50;99.90;;;;;;5017401;28;20073;-51
2024/03/15 12:30:33;;;;;;;2.13;1.95;;;14.50;99.90;;;;;;5025399;28;20025;-58
2024/03/15 12:32:59;;;;;;;3.40;1.90;;;14.70;99.90;;;;;;5030172;28;20511;-58
2024/03/15 12:35:25;;;;;;;4.47;2.15;;;15.00;99.90;;;;;;5030171;28;20029;-58
2024/03/15 12:37:52;;;;;;;2.90;2.15;;;15.20;99.90;;;;;;5029265;28;20022;-58
2024/03/15 12:40:19;;;;;;;2.33;2.10;;;15.40;99.90;;;;;;5022394;28;20030;-58
2024/03/15 12:42:45;;;;;;;2.40;2.10;;;15.60;99.90;;;;;;5013092;28;20022;-57
2024/03/15 12:45:11;;;;;;;4.45;2.47;;;15.80;99.90;;;;;;5037608;28;20366;-57
2024/03/15 12:47:41;;;;;;;3.58;2.50;;;15.80;99.90;;;;;;5035233;28;20153;-56
2024/03/15 12:50:23;;;;;;;2.38;1.92;;;15.70;99.90;;;;;;5039173;28;20029;-57
2024/03/15 12:52:48;;;;;;;3.17;2.92;;;15.80;99.90;;;;;;5026684;28;20366;-56